sensor_id;sensor_type;location;lat;lon;timestamp;P1;durP1;ratioP1;P2;durP2;ratioP2
68250;SDS011;55066;51.560;4.642;2024-02-15T00:00:28;15.48;;;4.70;;
68250;SDS011;55066;51.560;4.642;2024-02-15T00:02:59;14.00;;;4.68;;
68250;SDS011;55066;51.560;4.642;2024-02-15T00:05:24;11.75;;;4.65;;
68250;SDS011;55066;51.560;4.642;2024-02-15T00:07:50;13.68;;;5.10;;
68250;SDS011;55066;51.560;4.642;2024-02-15T00:10:15;14.17;;;4.53;;
68250;SDS011;55066;51.560;4.642;2024-02-15T00:12:41;9.80;;;4.23;;
68250;SDS011;55066;51.560;4.642;2024-02-15T00:15:06;13.18;;;4.57;;
68250;SDS011;55066;51.560;4.642;2024-02-15T00:17:33;12.57;;;4.78;;
68250;SDS011;55066;51.560;4.642;2024-02-15T00:20:01;13.90;;;4.93;;
68250;SDS011;55066;51.560;4.642;2024-02-15T00:22:38;11.98;;;4.57;;
68250;SDS011;55066;51.560;4.642;2024-02-15T00:25:06;12.30;;;4.53;;
68250;SDS011;55066;51.560;4.642;2024-02-15T00:27:34;13.50;;;4.80;;
68250;SDS011;55066;51.560;4.642;2024-02-15T00:30:00;11.95;;;4.90;;
68250;SDS011;55066;51.560;4.642;2024-02-15T00:32:27;18.52;;;5.18;;
68250;SDS011;55066;51.560;4.642;2024-02-15T00:34:52;16.37;;;4.77;;
68250;SDS011;55066;51.560;4.642;2024-02-15T00:37:18;14.80;;;4.80;;
68250;SDS011;55066;51.560;4.642;2024-02-15T00:39:44;14.60;;;4.63;;
68250;SDS011;55066;51.560;4.642;2024-02-15T00:42:10;15.60;;;4.63;;
68250;SDS011;55066;51.560;4.642;2024-02-15T00:44:38;16.65;;;4.70;;
68250;SDS011;55066;51.560;4.642;2024-02-15T00:47:04;13.65;;;4.85;;
68250;SDS011;55066;51.560;4.642;2024-02-15T00:49:34;16.10;;;4.97;;
68250;SDS011;55066;51.560;4.642;2024-02-15T00:52:03;10.93;;;4.47;;
68250;SDS011;55066;51.560;4.642;2024-02-15T00:54:34;20.48;;;5.65;;
68250;SDS011;55066;51.560;4.642;2024-02-15T00:57:00;14.67;;;5.00;;
68250;SDS011;55066;51.560;4.642;2024-02-15T00:59:25;12.05;;;4.35;;
68250;SDS011;55066;51.560;4.642;2024-02-15T01:01:51;12.33;;;4.90;;
68250;SDS011;55066;51.560;4.642;2024-02-15T01:04:18;15.23;;;4.60;;
68250;SDS011;55066;51.560;4.642;2024-02-15T01:06:46;11.67;;;4.83;;
68250;SDS011;55066;51.560;4.642;2024-02-15T01:09:12;13.80;;;5.07;;
68250;SDS011;55066;51.560;4.642;2024-02-15T01:11:38;11.85;;;4.45;;
68250;SDS011;55066;51.560;4.642;2024-02-15T01:14:04;18.88;;;4.72;;
68250;SDS011;55066;51.560;4.642;2024-02-15T01:16:29;13.27;;;4.80;;
68250;SDS011;55066;51.560;4.642;2024-02-15T01:18:58;27.52;;;5.45;;
68250;SDS011;55066;51.560;4.642;2024-02-15T01:21:24;12.53;;;4.87;;
68250;SDS011;55066;51.560;4.642;2024-02-15T01:23:50;15.85;;;5.10;;
68250;SDS011;55066;51.560;4.642;2024-02-15T01:26:20;17.13;;;5.00;;
68250;SDS011;55066;51.560;4.642;2024-02-15T01:28:49;13.97;;;5.13;;
68250;SDS011;55066;51.560;4.642;2024-02-15T01:31:18;12.13;;;4.80;;
68250;SDS011;55066;51.560;4.642;2024-02-15T01:33:48;18.00;;;4.95;;
68250;SDS011;55066;51.560;4.642;2024-02-15T01:36:14;11.98;;;4.18;;
68250;SDS011;55066;51.560;4.642;2024-02-15T01:38:43;16.08;;;5.00;;
68250;SDS011;55066;51.560;4.642;2024-02-15T01:41:18;10.73;;;4.47;;
68250;SDS011;55066;51.560;4.642;2024-02-15T01:43:44;14.80;;;4.72;;
68250;SDS011;55066;51.560;4.642;2024-02-15T01:46:11;19.77;;;5.10;;
68250;SDS011;55066;51.560;4.642;2024-02-15T01:48:37;11.65;;;4.70;;
68250;SDS011;55066;51.560;4.642;2024-02-15T01:51:04;15.57;;;4.73;;
68250;SDS011;55066;51.560;4.642;2024-02-15T01:53:32;13.80;;;4.57;;
68250;SDS011;55066;51.560;4.642;2024-02-15T01:55:58;11.93;;;4.35;;
68250;SDS011;55066;51.560;4.642;2024-02-15T01:58:25;12.20;;;4.55;;
68250;SDS011;55066;51.560;4.642;2024-02-15T02:00:53;9.95;;;3.95;;
68250;SDS011;55066;51.560;4.642;2024-02-15T02:03:24;15.00;;;4.83;;
68250;SDS011;55066;51.560;4.642;2024-02-15T02:05:50;10.63;;;4.18;;
68250;SDS011;55066;51.560;4.642;2024-02-15T02:08:17;13.25;;;4.43;;
68250;SDS011;55066;51.560;4.642;2024-02-15T02:10:42;10.37;;;3.83;;
68250;SDS011;55066;51.560;4.642;2024-02-15T02:13:10;13.15;;;4.20;;
68250;SDS011;55066;51.560;4.642;2024-02-15T02:15:36;12.40;;;4.03;;
68250;SDS011;55066;51.560;4.642;2024-02-15T02:18:06;18.90;;;4.23;;
68250;SDS011;55066;51.560;4.642;2024-02-15T02:20:33;13.27;;;4.30;;
68250;SDS011;55066;51.560;4.642;2024-02-15T02:23:03;15.82;;;4.05;;
68250;SDS011;55066;51.560;4.642;2024-02-15T02:25:39;10.15;;;3.53;;
68250;SDS011;55066;51.560;4.642;2024-02-15T02:28:07;18.15;;;4.50;;
68250;SDS011;55066;51.560;4.642;2024-02-15T02:30:37;17.00;;;4.23;;
68250;SDS011;55066;51.560;4.642;2024-02-15T02:33:04;14.65;;;3.95;;
68250;SDS011;55066;51.560;4.642;2024-02-15T02:35:33;18.23;;;4.03;;
68250;SDS011;55066;51.560;4.642;2024-02-15T02:38:01;17.10;;;3.97;;
68250;SDS011;55066;51.560;4.642;2024-02-15T02:40:28;13.32;;;4.13;;
68250;SDS011;55066;51.560;4.642;2024-02-15T02:42:56;9.90;;;3.70;;
68250;SDS011;55066;51.560;4.642;2024-02-15T02:45:24;10.95;;;3.90;;
68250;SDS011;55066;51.560;4.642;2024-02-15T02:47:52;15.38;;;3.60;;
68250;SDS011;55066;51.560;4.642;2024-02-15T02:50:21;15.02;;;3.90;;
68250;SDS011;55066;51.560;4.642;2024-02-15T02:52:48;10.40;;;3.58;;
68250;SDS011;55066;51.560;4.642;2024-02-15T02:55:14;13.40;;;3.67;;
68250;SDS011;55066;51.560;4.642;2024-02-15T02:57:40;11.13;;;3.45;;
68250;SDS011;55066;51.560;4.642;2024-02-15T03:02:41;13.00;;;3.70;;
68250;SDS011;55066;51.560;4.642;2024-02-15T03:05:09;12.57;;;3.45;;
68250;SDS011;55066;51.560;4.642;2024-02-15T03:07:36;8.82;;;3.28;;
68250;SDS011;55066;51.560;4.642;2024-02-15T03:10:06;14.15;;;3.80;;
68250;SDS011;55066;51.560;4.642;2024-02-15T03:12:35;12.68;;;3.40;;
68250;SDS011;55066;51.560;4.642;2024-02-15T03:15:07;16.53;;;3.80;;
68250;SDS011;55066;51.560;4.642;2024-02-15T03:17:40;10.73;;;3.63;;
68250;SDS011;55066;51.560;4.642;2024-02-15T03:20:11;11.38;;;3.38;;
68250;SDS011;55066;51.560;4.642;2024-02-15T03:25:24;11.45;;;3.35;;
68250;SDS011;55066;51.560;4.642;2024-02-15T03:27:54;15.67;;;4.23;;
68250;SDS011;55066;51.560;4.642;2024-02-15T03:30:23;12.35;;;3.75;;
68250;SDS011;55066;51.560;4.642;2024-02-15T03:32:54;14.93;;;3.60;;
68250;SDS011;55066;51.560;4.642;2024-02-15T03:35:21;16.50;;;3.87;;
68250;SDS011;55066;51.560;4.642;2024-02-15T03:37:51;13.07;;;4.20;;
68250;SDS011;55066;51.560;4.642;2024-02-15T03:40:18;11.90;;;3.55;;
68250;SDS011;55066;51.560;4.642;2024-02-15T03:42:45;18.23;;;3.85;;
68250;SDS011;55066;51.560;4.642;2024-02-15T03:45:12;18.48;;;3.88;;
68250;SDS011;55066;51.560;4.642;2024-02-15T03:47:39;12.67;;;3.53;;
68250;SDS011;55066;51.560;4.642;2024-02-15T03:50:07;17.98;;;3.92;;
68250;SDS011;55066;51.560;4.642;2024-02-15T03:52:40;15.13;;;3.65;;
68250;SDS011;55066;51.560;4.642;2024-02-15T03:55:06;14.65;;;3.65;;
68250;SDS011;55066;51.560;4.642;2024-02-15T03:57:33;12.88;;;3.45;;
68250;SDS011;55066;51.560;4.642;2024-02-15T03:59:59;14.13;;;4.07;;
68250;SDS011;55066;51.560;4.642;2024-02-15T04:02:35;15.77;;;3.95;;
68250;SDS011;55066;51.560;4.642;2024-02-15T04:05:00;18.83;;;3.88;;
68250;SDS011;55066;51.560;4.642;2024-02-15T04:07:26;11.27;;;3.57;;
68250;SDS011;55066;51.560;4.642;2024-02-15T04:09:53;12.50;;;3.17;;
68250;SDS011;55066;51.560;4.642;2024-02-15T04:12:21;15.70;;;4.10;;
68250;SDS011;55066;51.560;4.642;2024-02-15T04:14:47;14.67;;;4.10;;
68250;SDS011;55066;51.560;4.642;2024-02-15T04:17:13;14.30;;;3.63;;
68250;SDS011;55066;51.560;4.642;2024-02-15T04:19:43;21.15;;;3.83;;
68250;SDS011;55066;51.560;4.642;2024-02-15T04:22:16;14.50;;;3.13;;
68250;SDS011;55066;51.560;4.642;2024-02-15T04:24:44;13.32;;;3.20;;
68250;SDS011;55066;51.560;4.642;2024-02-15T04:27:14;15.98;;;3.88;;
68250;SDS011;55066;51.560;4.642;2024-02-15T04:29:49;11.93;;;3.40;;
68250;SDS011;55066;51.560;4.642;2024-02-15T04:32:18;9.77;;;3.45;;
68250;SDS011;55066;51.560;4.642;2024-02-15T04:34:46;16.10;;;3.70;;
68250;SDS011;55066;51.560;4.642;2024-02-15T04:37:12;10.02;;;3.53;;
68250;SDS011;55066;51.560;4.642;2024-02-15T04:39:38;9.95;;;3.45;;
68250;SDS011;55066;51.560;4.642;2024-02-15T04:42:07;9.00;;;3.03;;
68250;SDS011;55066;51.560;4.642;2024-02-15T04:44:39;16.17;;;3.63;;
68250;SDS011;55066;51.560;4.642;2024-02-15T04:47:09;13.73;;;3.50;;
68250;SDS011;55066;51.560;4.642;2024-02-15T04:49:34;13.18;;;3.50;;
68250;SDS011;55066;51.560;4.642;2024-02-15T04:52:03;12.23;;;4.05;;
68250;SDS011;55066;51.560;4.642;2024-02-15T04:54:29;9.27;;;3.27;;
68250;SDS011;55066;51.560;4.642;2024-02-15T04:56:56;14.63;;;4.10;;
68250;SDS011;55066;51.560;4.642;2024-02-15T04:59:23;13.13;;;4.00;;
68250;SDS011;55066;51.560;4.642;2024-02-15T05:01:53;10.50;;;3.50;;
68250;SDS011;55066;51.560;4.642;2024-02-15T05:04:20;13.43;;;4.05;;
68250;SDS011;55066;51.560;4.642;2024-02-15T05:06:49;12.10;;;3.75;;
68250;SDS011;55066;51.560;4.642;2024-02-15T05:09:15;14.85;;;3.83;;
68250;SDS011;55066;51.560;4.642;2024-02-15T05:11:44;9.95;;;4.00;;
68250;SDS011;55066;51.560;4.642;2024-02-15T05:14:14;17.35;;;4.80;;
68250;SDS011;55066;51.560;4.642;2024-02-15T05:16:51;12.90;;;3.90;;
68250;SDS011;55066;51.560;4.642;2024-02-15T05:19:18;14.20;;;4.43;;
68250;SDS011;55066;51.560;4.642;2024-02-15T05:21:47;11.02;;;4.18;;
68250;SDS011;55066;51.560;4.642;2024-02-15T05:24:16;14.68;;;4.15;;
68250;SDS011;55066;51.560;4.642;2024-02-15T05:26:43;13.10;;;4.45;;
68250;SDS011;55066;51.560;4.642;2024-02-15T05:29:12;13.50;;;4.20;;
68250;SDS011;55066;51.560;4.642;2024-02-15T05:31:40;13.40;;;4.40;;
68250;SDS011;55066;51.560;4.642;2024-02-15T05:34:07;11.75;;;4.28;;
68250;SDS011;55066;51.560;4.642;2024-02-15T05:36:37;12.90;;;4.25;;
68250;SDS011;55066;51.560;4.642;2024-02-15T05:39:03;15.60;;;4.22;;
68250;SDS011;55066;51.560;4.642;2024-02-15T05:41:30;16.10;;;4.63;;
68250;SDS011;55066;51.560;4.642;2024-02-15T05:43:58;12.35;;;4.30;;
68250;SDS011;55066;51.560;4.642;2024-02-15T05:46:24;14.13;;;4.15;;
68250;SDS011;55066;51.560;4.642;2024-02-15T05:48:50;12.77;;;4.38;;
68250;SDS011;55066;51.560;4.642;2024-02-15T05:51:16;14.10;;;3.90;;
68250;SDS011;55066;51.560;4.642;2024-02-15T05:53:46;10.67;;;4.07;;
68250;SDS011;55066;51.560;4.642;2024-02-15T05:56:14;12.75;;;3.70;;
68250;SDS011;55066;51.560;4.642;2024-02-15T05:58:42;16.27;;;4.90;;
68250;SDS011;55066;51.560;4.642;2024-02-15T06:01:08;14.07;;;4.57;;
68250;SDS011;55066;51.560;4.642;2024-02-15T06:03:38;12.38;;;4.40;;
68250;SDS011;55066;51.560;4.642;2024-02-15T06:06:05;13.37;;;4.23;;
68250;SDS011;55066;51.560;4.642;2024-02-15T06:08:32;13.38;;;4.03;;
68250;SDS011;55066;51.560;4.642;2024-02-15T06:11:04;14.10;;;4.40;;
68250;SDS011;55066;51.560;4.642;2024-02-15T06:13:34;14.60;;;3.85;;
68250;SDS011;55066;51.560;4.642;2024-02-15T06:16:00;12.57;;;3.97;;
68250;SDS011;55066;51.560;4.642;2024-02-15T06:18:34;12.25;;;3.55;;
68250;SDS011;55066;51.560;4.642;2024-02-15T06:21:00;14.27;;;3.25;;
68250;SDS011;55066;51.560;4.642;2024-02-15T06:23:27;10.32;;;3.83;;
68250;SDS011;55066;51.560;4.642;2024-02-15T06:25:55;11.55;;;3.78;;
68250;SDS011;55066;51.560;4.642;2024-02-15T06:28:23;12.95;;;4.13;;
68250;SDS011;55066;51.560;4.642;2024-02-15T06:31:07;14.88;;;3.45;;
68250;SDS011;55066;51.560;4.642;2024-02-15T06:33:54;11.15;;;3.60;;
68250;SDS011;55066;51.560;4.642;2024-02-15T06:36:39;10.45;;;3.30;;
68250;SDS011;55066;51.560;4.642;2024-02-15T06:39:33;13.35;;;3.70;;
68250;SDS011;55066;51.560;4.642;2024-02-15T06:42:14;12.80;;;4.30;;
68250;SDS011;55066;51.560;4.642;2024-02-15T06:44:45;14.43;;;4.10;;
68250;SDS011;55066;51.560;4.642;2024-02-15T06:47:12;13.68;;;3.70;;
68250;SDS011;55066;51.560;4.642;2024-02-15T06:49:42;15.70;;;3.72;;
68250;SDS011;55066;51.560;4.642;2024-02-15T06:52:09;15.80;;;4.00;;
68250;SDS011;55066;51.560;4.642;2024-02-15T06:54:39;11.70;;;3.42;;
68250;SDS011;55066;51.560;4.642;2024-02-15T06:57:07;9.48;;;3.40;;
68250;SDS011;55066;51.560;4.642;2024-02-15T06:59:33;15.15;;;3.67;;
68250;SDS011;55066;51.560;4.642;2024-02-15T07:02:00;9.02;;;3.00;;
68250;SDS011;55066;51.560;4.642;2024-02-15T07:04:29;11.18;;;3.35;;
68250;SDS011;55066;51.560;4.642;2024-02-15T07:06:57;12.82;;;3.38;;
68250;SDS011;55066;51.560;4.642;2024-02-15T07:09:23;10.88;;;3.22;;
68250;SDS011;55066;51.560;4.642;2024-02-15T07:11:52;10.03;;;2.93;;
68250;SDS011;55066;51.560;4.642;2024-02-15T07:14:18;6.68;;;2.70;;
68250;SDS011;55066;51.560;4.642;2024-02-15T07:16:48;16.25;;;3.42;;
68250;SDS011;55066;51.560;4.642;2024-02-15T07:19:14;11.25;;;3.10;;
68250;SDS011;55066;51.560;4.642;2024-02-15T07:21:41;13.57;;;3.30;;
68250;SDS011;55066;51.560;4.642;2024-02-15T07:24:13;11.87;;;3.37;;
68250;SDS011;55066;51.560;4.642;2024-02-15T07:26:44;7.68;;;2.72;;
68250;SDS011;55066;51.560;4.642;2024-02-15T07:29:12;12.48;;;3.50;;
68250;SDS011;55066;51.560;4.642;2024-02-15T07:31:40;9.75;;;3.05;;
68250;SDS011;55066;51.560;4.642;2024-02-15T07:34:08;11.13;;;3.50;;
68250;SDS011;55066;51.560;4.642;2024-02-15T07:36:37;10.40;;;2.90;;
68250;SDS011;55066;51.560;4.642;2024-02-15T07:39:04;13.20;;;3.30;;
68250;SDS011;55066;51.560;4.642;2024-02-15T07:41:30;15.37;;;3.30;;
68250;SDS011;55066;51.560;4.642;2024-02-15T07:43:58;9.93;;;3.25;;
68250;SDS011;55066;51.560;4.642;2024-02-15T07:46:24;9.75;;;2.80;;
68250;SDS011;55066;51.560;4.642;2024-02-15T07:48:51;9.20;;;3.00;;
68250;SDS011;55066;51.560;4.642;2024-02-15T07:51:17;12.57;;;3.10;;
68250;SDS011;55066;51.560;4.642;2024-02-15T07:53:43;10.52;;;2.85;;
68250;SDS011;55066;51.560;4.642;2024-02-15T07:56:16;12.90;;;3.90;;
68250;SDS011;55066;51.560;4.642;2024-02-15T07:58:50;7.28;;;2.70;;
68250;SDS011;55066;51.560;4.642;2024-02-15T08:01:18;10.35;;;2.78;;
68250;SDS011;55066;51.560;4.642;2024-02-15T08:03:47;10.13;;;2.60;;
68250;SDS011;55066;51.560;4.642;2024-02-15T08:06:13;9.15;;;2.78;;
68250;SDS011;55066;51.560;4.642;2024-02-15T08:08:43;10.15;;;2.40;;
68250;SDS011;55066;51.560;4.642;2024-02-15T08:11:13;9.93;;;2.60;;
68250;SDS011;55066;51.560;4.642;2024-02-15T08:13:45;11.32;;;2.85;;
68250;SDS011;55066;51.560;4.642;2024-02-15T08:16:23;8.57;;;2.38;;
68250;SDS011;55066;51.560;4.642;2024-02-15T08:18:53;13.00;;;3.47;;
68250;SDS011;55066;51.560;4.642;2024-02-15T08:21:27;11.15;;;3.40;;
68250;SDS011;55066;51.560;4.642;2024-02-15T08:23:58;13.40;;;4.32;;
68250;SDS011;55066;51.560;4.642;2024-02-15T08:26:26;10.32;;;3.90;;
68250;SDS011;55066;51.560;4.642;2024-02-15T08:29:08;11.85;;;3.28;;
68250;SDS011;55066;51.560;4.642;2024-02-15T08:31:39;9.93;;;2.70;;
68250;SDS011;55066;51.560;4.642;2024-02-15T08:34:07;9.95;;;2.72;;
68250;SDS011;55066;51.560;4.642;2024-02-15T08:36:39;10.68;;;2.70;;
68250;SDS011;55066;51.560;4.642;2024-02-15T08:39:08;8.57;;;2.83;;
68250;SDS011;55066;51.560;4.642;2024-02-15T08:41:43;16.58;;;3.08;;
68250;SDS011;55066;51.560;4.642;2024-02-15T08:44:09;9.85;;;2.85;;
68250;SDS011;55066;51.560;4.642;2024-02-15T08:46:41;7.60;;;3.03;;
68250;SDS011;55066;51.560;4.642;2024-02-15T08:49:06;10.68;;;2.83;;
68250;SDS011;55066;51.560;4.642;2024-02-15T08:51:32;10.73;;;2.77;;
68250;SDS011;55066;51.560;4.642;2024-02-15T08:54:01;9.57;;;3.03;;
68250;SDS011;55066;51.560;4.642;2024-02-15T08:56:27;11.90;;;3.20;;
68250;SDS011;55066;51.560;4.642;2024-02-15T08:58:53;8.23;;;2.83;;
68250;SDS011;55066;51.560;4.642;2024-02-15T09:01:18;9.73;;;2.70;;
68250;SDS011;55066;51.560;4.642;2024-02-15T09:03:44;11.63;;;2.80;;
68250;SDS011;55066;51.560;4.642;2024-02-15T09:06:10;15.67;;;2.70;;
68250;SDS011;55066;51.560;4.642;2024-02-15T09:08:36;9.38;;;3.22;;
68250;SDS011;55066;51.560;4.642;2024-02-15T09:11:03;16.05;;;3.03;;
68250;SDS011;55066;51.560;4.642;2024-02-15T09:13:28;15.03;;;3.00;;
68250;SDS011;55066;51.560;4.642;2024-02-15T09:15:55;9.60;;;2.67;;
68250;SDS011;55066;51.560;4.642;2024-02-15T09:18:24;13.30;;;3.00;;
68250;SDS011;55066;51.560;4.642;2024-02-15T09:20:50;13.03;;;2.70;;
68250;SDS011;55066;51.560;4.642;2024-02-15T09:23:21;10.93;;;2.58;;
68250;SDS011;55066;51.560;4.642;2024-02-15T09:25:49;13.05;;;2.60;;
68250;SDS011;55066;51.560;4.642;2024-02-15T09:28:17;12.13;;;2.60;;
68250;SDS011;55066;51.560;4.642;2024-02-15T09:30:50;8.48;;;2.65;;
68250;SDS011;55066;51.560;4.642;2024-02-15T09:33:19;10.80;;;3.60;;
68250;SDS011;55066;51.560;4.642;2024-02-15T09:35:46;9.10;;;3.10;;
68250;SDS011;55066;51.560;4.642;2024-02-15T09:38:13;13.32;;;3.58;;
68250;SDS011;55066;51.560;4.642;2024-02-15T09:40:42;17.17;;;4.10;;
68250;SDS011;55066;51.560;4.642;2024-02-15T09:43:12;14.27;;;3.97;;
68250;SDS011;55066;51.560;4.642;2024-02-15T09:45:38;15.77;;;4.10;;
68250;SDS011;55066;51.560;4.642;2024-02-15T09:48:05;17.23;;;4.40;;
68250;SDS011;55066;51.560;4.642;2024-02-15T09:50:34;10.80;;;4.75;;
68250;SDS011;55066;51.560;4.642;2024-02-15T09:53:01;14.57;;;4.57;;
68250;SDS011;55066;51.560;4.642;2024-02-15T09:55:28;13.88;;;5.07;;
68250;SDS011;55066;51.560;4.642;2024-02-15T09:57:55;15.25;;;4.63;;
68250;SDS011;55066;51.560;4.642;2024-02-15T10:00:21;13.07;;;5.25;;
68250;SDS011;55066;51.560;4.642;2024-02-15T10:02:52;14.32;;;5.47;;
68250;SDS011;55066;51.560;4.642;2024-02-15T10:05:22;15.40;;;5.07;;
68250;SDS011;55066;51.560;4.642;2024-02-15T10:07:49;15.98;;;5.50;;
68250;SDS011;55066;51.560;4.642;2024-02-15T10:10:16;14.10;;;5.57;;
68250;SDS011;55066;51.560;4.642;2024-02-15T10:12:45;12.25;;;4.72;;
68250;SDS011;55066;51.560;4.642;2024-02-15T10:15:32;18.33;;;5.18;;
68250;SDS011;55066;51.560;4.642;2024-02-15T10:17:59;12.53;;;4.83;;
68250;SDS011;55066;51.560;4.642;2024-02-15T10:20:26;14.23;;;4.97;;
68250;SDS011;55066;51.560;4.642;2024-02-15T10:22:58;16.67;;;5.85;;
68250;SDS011;55066;51.560;4.642;2024-02-15T10:25:35;11.38;;;4.85;;
68250;SDS011;55066;51.560;4.642;2024-02-15T10:28:05;15.25;;;4.70;;
68250;SDS011;55066;51.560;4.642;2024-02-15T10:30:38;11.77;;;4.30;;
68250;SDS011;55066;51.560;4.642;2024-02-15T10:33:09;11.18;;;4.05;;
68250;SDS011;55066;51.560;4.642;2024-02-15T10:35:36;14.05;;;3.95;;
68250;SDS011;55066;51.560;4.642;2024-02-15T10:38:05;11.43;;;3.80;;
68250;SDS011;55066;51.560;4.642;2024-02-15T10:40:36;16.70;;;3.78;;
68250;SDS011;55066;51.560;4.642;2024-02-15T10:43:04;11.68;;;3.58;;
68250;SDS011;55066;51.560;4.642;2024-02-15T10:45:32;10.35;;;3.28;;
68250;SDS011;55066;51.560;4.642;2024-02-15T10:47:58;10.23;;;3.28;;
68250;SDS011;55066;51.560;4.642;2024-02-15T10:50:27;12.63;;;3.47;;
68250;SDS011;55066;51.560;4.642;2024-02-15T10:52:56;14.80;;;3.80;;
68250;SDS011;55066;51.560;4.642;2024-02-15T10:58:05;15.02;;;3.53;;
68250;SDS011;55066;51.560;4.642;2024-02-15T11:00:32;10.65;;;3.70;;
68250;SDS011;55066;51.560;4.642;2024-02-15T11:03:07;11.20;;;3.58;;
68250;SDS011;55066;51.560;4.642;2024-02-15T11:05:35;11.90;;;3.63;;
68250;SDS011;55066;51.560;4.642;2024-02-15T11:08:13;12.05;;;3.90;;
68250;SDS011;55066;51.560;4.642;2024-02-15T11:10:42;9.60;;;3.67;;
68250;SDS011;55066;51.560;4.642;2024-02-15T11:13:09;11.20;;;3.63;;
68250;SDS011;55066;51.560;4.642;2024-02-15T11:21:17;11.32;;;3.42;;
68250;SDS011;55066;51.560;4.642;2024-02-15T11:24:27;12.05;;;3.80;;
68250;SDS011;55066;51.560;4.642;2024-02-15T11:26:58;11.02;;;4.30;;
68250;SDS011;55066;51.560;4.642;2024-02-15T11:29:47;10.82;;;3.35;;
68250;SDS011;55066;51.560;4.642;2024-02-15T11:40:24;11.63;;;3.08;;
68250;SDS011;55066;51.560;4.642;2024-02-15T11:42:58;9.68;;;2.80;;
68250;SDS011;55066;51.560;4.642;2024-02-15T11:45:43;11.00;;;2.88;;
68250;SDS011;55066;51.560;4.642;2024-02-15T11:48:20;6.82;;;2.28;;
68250;SDS011;55066;51.560;4.642;2024-02-15T11:50:50;9.35;;;2.45;;
68250;SDS011;55066;51.560;4.642;2024-02-15T11:53:21;8.27;;;2.40;;
68250;SDS011;55066;51.560;4.642;2024-02-15T11:55:49;9.38;;;2.53;;
68250;SDS011;55066;51.560;4.642;2024-02-15T11:58:27;7.25;;;2.20;;
68250;SDS011;55066;51.560;4.642;2024-02-15T12:01:11;7.05;;;2.08;;
68250;SDS011;55066;51.560;4.642;2024-02-15T12:03:55;7.30;;;2.30;;
68250;SDS011;55066;51.560;4.642;2024-02-15T12:06:43;9.93;;;2.33;;
68250;SDS011;55066;51.560;4.642;2024-02-15T12:09:34;5.88;;;2.20;;
68250;SDS011;55066;51.560;4.642;2024-02-15T12:12:19;6.10;;;2.28;;
68250;SDS011;55066;51.560;4.642;2024-02-15T12:15:19;8.95;;;2.70;;
68250;SDS011;55066;51.560;4.642;2024-02-15T12:18:15;7.40;;;2.55;;
68250;SDS011;55066;51.560;4.642;2024-02-15T12:20:59;8.70;;;3.05;;
68250;SDS011;55066;51.560;4.642;2024-02-15T12:23:29;7.63;;;2.58;;
68250;SDS011;55066;51.560;4.642;2024-02-15T12:26:01;10.07;;;3.42;;
68250;SDS011;55066;51.560;4.642;2024-02-15T12:28:30;6.18;;;2.42;;
68250;SDS011;55066;51.560;4.642;2024-02-15T12:30:56;7.30;;;2.90;;
68250;SDS011;55066;51.560;4.642;2024-02-15T12:33:24;6.90;;;2.78;;
68250;SDS011;55066;51.560;4.642;2024-02-15T12:36:05;8.02;;;3.28;;
68250;SDS011;55066;51.560;4.642;2024-02-15T12:38:33;5.70;;;2.97;;
68250;SDS011;55066;51.560;4.642;2024-02-15T12:41:02;5.70;;;2.13;;
68250;SDS011;55066;51.560;4.642;2024-02-15T12:43:30;5.75;;;2.22;;
68250;SDS011;55066;51.560;4.642;2024-02-15T12:46:00;7.05;;;3.03;;
68250;SDS011;55066;51.560;4.642;2024-02-15T12:48:26;6.57;;;2.88;;
68250;SDS011;55066;51.560;4.642;2024-02-15T12:50:54;8.88;;;2.42;;
68250;SDS011;55066;51.560;4.642;2024-02-15T12:53:22;5.50;;;2.25;;
68250;SDS011;55066;51.560;4.642;2024-02-15T12:55:54;4.67;;;2.13;;
68250;SDS011;55066;51.560;4.642;2024-02-15T12:58:31;4.93;;;2.03;;
68250;SDS011;55066;51.560;4.642;2024-02-15T13:00:57;5.57;;;2.10;;
68250;SDS011;55066;51.560;4.642;2024-02-15T13:03:23;7.05;;;1.95;;
68250;SDS011;55066;51.560;4.642;2024-02-15T13:05:51;5.72;;;2.08;;
68250;SDS011;55066;51.560;4.642;2024-02-15T13:08:17;5.77;;;2.30;;
68250;SDS011;55066;51.560;4.642;2024-02-15T13:10:45;6.15;;;2.60;;
68250;SDS011;55066;51.560;4.642;2024-02-15T13:13:12;7.05;;;2.00;;
68250;SDS011;55066;51.560;4.642;2024-02-15T13:15:42;7.18;;;2.05;;
68250;SDS011;55066;51.560;4.642;2024-02-15T13:18:10;7.63;;;2.20;;
68250;SDS011;55066;51.560;4.642;2024-02-15T13:20:47;5.57;;;2.23;;
68250;SDS011;55066;51.560;4.642;2024-02-15T13:23:17;6.95;;;2.30;;
68250;SDS011;55066;51.560;4.642;2024-02-15T13:25:47;8.00;;;2.53;;
68250;SDS011;55066;51.560;4.642;2024-02-15T13:28:15;6.82;;;2.20;;
68250;SDS011;55066;51.560;4.642;2024-02-15T13:30:41;5.50;;;2.10;;
68250;SDS011;55066;51.560;4.642;2024-02-15T13:33:09;7.47;;;2.20;;
68250;SDS011;55066;51.560;4.642;2024-02-15T13:35:37;7.88;;;2.22;;
68250;SDS011;55066;51.560;4.642;2024-02-15T13:38:06;7.95;;;2.03;;
68250;SDS011;55066;51.560;4.642;2024-02-15T13:40:34;6.97;;;2.10;;
68250;SDS011;55066;51.560;4.642;2024-02-15T13:43:04;4.97;;;1.90;;
68250;SDS011;55066;51.560;4.642;2024-02-15T13:45:38;8.73;;;2.20;;
68250;SDS011;55066;51.560;4.642;2024-02-15T13:48:07;4.72;;;1.38;;
68250;SDS011;55066;51.560;4.642;2024-02-15T13:50:35;6.60;;;1.65;;
68250;SDS011;55066;51.560;4.642;2024-02-15T13:53:02;4.37;;;1.33;;
68250;SDS011;55066;51.560;4.642;2024-02-15T13:55:30;4.63;;;1.60;;
68250;SDS011;55066;51.560;4.642;2024-02-15T13:57:56;3.60;;;1.42;;
68250;SDS011;55066;51.560;4.642;2024-02-15T14:00:35;7.50;;;2.15;;
68250;SDS011;55066;51.560;4.642;2024-02-15T14:03:03;5.00;;;1.33;;
68250;SDS011;55066;51.560;4.642;2024-02-15T14:05:31;5.20;;;1.90;;
68250;SDS011;55066;51.560;4.642;2024-02-15T14:08:04;5.30;;;1.48;;
68250;SDS011;55066;51.560;4.642;2024-02-15T14:10:31;5.03;;;1.52;;
68250;SDS011;55066;51.560;4.642;2024-02-15T14:12:58;8.38;;;1.60;;
68250;SDS011;55066;51.560;4.642;2024-02-15T14:15:25;3.75;;;1.33;;
68250;SDS011;55066;51.560;4.642;2024-02-15T14:17:51;3.67;;;1.40;;
68250;SDS011;55066;51.560;4.642;2024-02-15T14:20:17;3.95;;;1.23;;
68250;SDS011;55066;51.560;4.642;2024-02-15T14:22:48;4.78;;;1.42;;
68250;SDS011;55066;51.560;4.642;2024-02-15T14:25:15;5.97;;;1.20;;
68250;SDS011;55066;51.560;4.642;2024-02-15T14:27:41;2.80;;;1.08;;
68250;SDS011;55066;51.560;4.642;2024-02-15T14:30:07;3.00;;;1.30;;
68250;SDS011;55066;51.560;4.642;2024-02-15T14:32:52;3.42;;;1.00;;
68250;SDS011;55066;51.560;4.642;2024-02-15T14:35:34;2.70;;;1.10;;
68250;SDS011;55066;51.560;4.642;2024-02-15T14:38:03;3.13;;;1.10;;
68250;SDS011;55066;51.560;4.642;2024-02-15T14:40:44;4.20;;;1.23;;
68250;SDS011;55066;51.560;4.642;2024-02-15T14:43:16;3.00;;;1.10;;
68250;SDS011;55066;51.560;4.642;2024-02-15T14:45:44;4.18;;;1.10;;
68250;SDS011;55066;51.560;4.642;2024-02-15T14:48:10;3.50;;;1.30;;
68250;SDS011;55066;51.560;4.642;2024-02-15T14:50:37;4.18;;;1.35;;
68250;SDS011;55066;51.560;4.642;2024-02-15T14:53:09;4.78;;;1.38;;
68250;SDS011;55066;51.560;4.642;2024-02-15T14:55:45;3.28;;;1.13;;
68250;SDS011;55066;51.560;4.642;2024-02-15T14:58:18;3.88;;;1.20;;
68250;SDS011;55066;51.560;4.642;2024-02-15T15:00:45;5.47;;;1.50;;
68250;SDS011;55066;51.560;4.642;2024-02-15T15:03:18;4.45;;;1.42;;
68250;SDS011;55066;51.560;4.642;2024-02-15T15:05:47;5.30;;;1.10;;
68250;SDS011;55066;51.560;4.642;2024-02-15T15:08:32;3.33;;;0.80;;
68250;SDS011;55066;51.560;4.642;2024-02-15T15:11:17;4.18;;;1.30;;
68250;SDS011;55066;51.560;4.642;2024-02-15T15:14:02;6.30;;;1.10;;